createdAt,value
2017-08-27T00:00:48.797Z,996.93
2017-08-27T00:01:59.283Z,996.9
2017-08-27T00:03:13.190Z,996.89
2017-08-27T00:06:04.311Z,996.83
2017-08-27T00:07:14.665Z,996.82
2017-08-27T00:08:25.010Z,996.84
2017-08-27T00:09:35.364Z,996.82
2017-08-27T00:10:45.452Z,996.77
2017-08-27T00:11:55.804Z,996.78
2017-08-27T00:13:06.165Z,996.8
2017-08-27T00:14:16.496Z,996.82
2017-08-27T00:15:26.513Z,996.79
2017-08-27T00:16:36.594Z,996.76
2017-08-27T00:17:46.625Z,996.81
2017-08-27T00:18:56.980Z,996.87
2017-08-27T00:20:07.329Z,996.9
2017-08-27T00:21:17.683Z,996.92
2017-08-27T00:22:28.078Z,996.96
2017-08-27T00:23:38.435Z,996.97
2017-08-27T00:24:48.459Z,996.97
2017-08-27T00:25:58.795Z,996.98
2017-08-27T00:27:08.188Z,996.98
2017-08-27T00:28:18.596Z,997.01
2017-08-27T00:29:28.945Z,997.01
2017-08-27T00:30:39.289Z,997.02
2017-08-27T00:31:49.652Z,997.03
2017-08-27T00:32:59.991Z,997.06
2017-08-27T00:34:10.065Z,997.06
2017-08-27T00:35:20.419Z,997.05
2017-08-27T00:36:30.766Z,997.06
2017-08-27T00:37:41.131Z,997.03
2017-08-27T00:38:51.159Z,997.08
2017-08-27T00:40:01.551Z,997.09
2017-08-27T00:41:11.892Z,997.1
2017-08-27T00:42:23.335Z,997.13
2017-08-27T00:43:33.684Z,997.1
2017-08-27T00:44:43.708Z,997.16
2017-08-27T00:45:54.109Z,997.12
2017-08-27T00:47:04.457Z,997.11
2017-08-27T00:48:14.798Z,997.09
2017-08-27T00:49:24.834Z,997.07
2017-08-27T00:50:34.855Z,997.04
2017-08-27T00:51:44.938Z,997
2017-08-27T00:52:54.975Z,996.98
2017-08-27T00:54:05.322Z,997.01
2017-08-27T00:55:15.662Z,996.95
2017-08-27T00:56:26.017Z,996.96
2017-08-27T00:57:36.084Z,996.97
2017-08-27T00:58:46.103Z,996.95
2017-08-27T00:59:56.122Z,996.97
2017-08-27T01:01:06.479Z,996.99
2017-08-27T01:02:16.809Z,996.96
2017-08-27T01:03:26.580Z,996.95
2017-08-27T01:04:36.927Z,996.94
2017-08-27T01:05:46.975Z,996.96
2017-08-27T01:06:57.005Z,996.92
2017-08-27T01:08:07.357Z,996.91
2017-08-27T01:09:17.785Z,996.91
2017-08-27T01:10:28.141Z,996.87
2017-08-27T01:11:38.485Z,996.9
2017-08-27T01:12:48.526Z,996.86
2017-08-27T01:13:59.617Z,996.84
2017-08-27T01:15:10.008Z,996.84
2017-08-27T01:16:21.987Z,996.82
2017-08-27T01:17:32.324Z,996.85
2017-08-27T01:18:42.701Z,996.84
2017-08-27T01:19:52.407Z,996.82
2017-08-27T01:21:02.801Z,996.85
2017-08-27T01:22:13.155Z,996.84
2017-08-27T01:23:23.483Z,996.86
2017-08-27T01:24:33.494Z,996.83
2017-08-27T01:25:43.515Z,996.79
2017-08-27T01:26:53.910Z,996.82
2017-08-27T01:28:03.929Z,996.82
2017-08-27T01:29:14.280Z,996.8
2017-08-27T01:30:24.312Z,996.79
2017-08-27T01:31:34.338Z,996.81
2017-08-27T01:32:44.743Z,996.77
2017-08-27T01:33:54.763Z,996.8
2017-08-27T01:35:05.128Z,996.81
2017-08-27T01:36:15.155Z,996.81
2017-08-27T01:37:25.494Z,996.76
2017-08-27T01:38:35.895Z,996.77
2017-08-27T01:39:46.238Z,996.79
2017-08-27T01:40:55.950Z,996.76
2017-08-27T01:42:06.301Z,996.75
2017-08-27T01:43:16.305Z,996.73
2017-08-27T01:44:26.700Z,996.73
2017-08-27T01:45:37.065Z,996.69
2017-08-27T01:46:47.097Z,996.76
2017-08-27T01:47:57.446Z,996.76
2017-08-27T01:49:07.487Z,996.71
2017-08-27T01:50:17.886Z,996.73
2017-08-27T01:51:28.233Z,996.71
2017-08-27T01:52:38.588Z,996.71
2017-08-27T01:53:48.935Z,996.71
2017-08-27T01:54:59.293Z,996.69
2017-08-27T01:56:09.062Z,996.67
2017-08-27T01:57:19.082Z,996.65
2017-08-27T01:58:29.461Z,996.69
2017-08-27T01:59:39.801Z,996.68
2017-08-27T02:00:50.142Z,996.7
2017-08-27T02:02:00.221Z,996.7
2017-08-27T02:03:10.246Z,996.68
2017-08-27T02:04:20.593Z,996.68
2017-08-27T02:05:30.620Z,996.67
2017-08-27T02:06:40.667Z,996.7
2017-08-27T02:07:51.058Z,996.69
2017-08-27T02:09:01.121Z,996.69
2017-08-27T02:10:11.489Z,996.67
2017-08-27T02:11:21.827Z,996.66
2017-08-27T02:12:31.855Z,996.65
2017-08-27T02:13:42.247Z,996.66
2017-08-27T02:14:52.273Z,996.62
2017-08-27T02:16:02.300Z,996.68
2017-08-27T02:17:12.657Z,996.65
2017-08-27T02:18:22.675Z,996.62
2017-08-27T02:19:32.752Z,996.64
2017-08-27T02:20:43.102Z,996.66
2017-08-27T02:21:53.469Z,996.64
2017-08-27T02:23:03.824Z,996.59
2017-08-27T02:24:13.887Z,996.55
2017-08-27T02:25:24.285Z,996.58
2017-08-27T02:26:34.011Z,996.56
2017-08-27T02:27:44.367Z,996.59
2017-08-27T02:28:56.660Z,996.54
2017-08-27T02:30:07.006Z,996.58
2017-08-27T02:31:17.408Z,996.55
2017-08-27T02:32:27.431Z,996.57
2017-08-27T02:33:37.147Z,996.58
2017-08-27T02:34:47.495Z,996.59
2017-08-27T02:35:57.525Z,996.61
2017-08-27T02:37:07.915Z,996.58
2017-08-27T02:38:18.274Z,996.6
2017-08-27T02:39:28.616Z,996.63
2017-08-27T02:40:38.963Z,996.63
2017-08-27T02:41:49.310Z,996.65
2017-08-27T02:42:59.380Z,996.62
2017-08-27T02:44:09.773Z,996.6
2017-08-27T02:45:19.835Z,996.6
2017-08-27T02:46:30.196Z,996.59
2017-08-27T02:47:40.556Z,996.58
2017-08-27T02:48:50.952Z,996.59
2017-08-27T02:50:00.983Z,996.56
2017-08-27T02:51:11.015Z,996.58
2017-08-27T02:52:21.361Z,996.59
2017-08-27T02:53:31.710Z,996.62
2017-08-27T02:54:41.463Z,996.61
2017-08-27T02:55:51.804Z,996.61
2017-08-27T02:57:02.148Z,996.62
2017-08-27T02:58:12.177Z,996.64
2017-08-27T02:59:22.531Z,996.61
2017-08-27T03:00:32.607Z,996.63
2017-08-27T03:01:42.957Z,996.66
2017-08-27T03:33:33.753Z,996.79
2017-08-27T03:34:44.534Z,996.77
2017-08-27T03:35:54.553Z,996.74
2017-08-27T03:37:04.873Z,996.71
2017-08-27T03:38:15.231Z,996.73
2017-08-27T03:39:25.627Z,996.72
2017-08-27T03:40:35.970Z,996.71
2017-08-27T03:41:46.307Z,996.73
2017-08-27T03:42:56.661Z,996.76
2017-08-27T03:44:07.000Z,996.76
2017-08-27T03:45:18.178Z,996.73
2017-08-27T03:46:30.920Z,996.76
2017-08-27T03:47:41.353Z,996.73
2017-08-27T03:48:51.071Z,996.74
2017-08-27T03:50:01.453Z,996.76
2017-08-27T03:51:11.859Z,996.78
2017-08-27T03:52:22.207Z,996.79
2017-08-27T03:53:32.540Z,996.78
2017-08-27T03:54:42.880Z,996.83
2017-08-27T03:55:53.222Z,996.85
2017-08-27T03:57:03.625Z,996.81
2017-08-27T03:58:13.992Z,996.83
2017-08-27T03:59:24.024Z,996.85
2017-08-27T04:00:34.373Z,996.9
2017-08-27T04:01:44.709Z,996.87
2017-08-27T04:02:55.097Z,996.85
2017-08-27T04:04:05.440Z,996.87
2017-08-27T04:05:15.475Z,996.82
2017-08-27T04:06:25.836Z,996.85
2017-08-27T04:07:35.875Z,996.84
2017-08-27T04:08:45.953Z,996.81
2017-08-27T04:09:56.319Z,996.83
2017-08-27T04:11:06.336Z,996.86
2017-08-27T04:12:16.681Z,996.89
2017-08-27T04:13:27.049Z,996.86
2017-08-27T04:14:37.140Z,996.88
2017-08-27T04:15:47.183Z,996.87
2017-08-27T04:16:59.474Z,996.92
2017-08-27T04:18:09.811Z,996.95
2017-08-27T04:19:19.857Z,996.95
2017-08-27T04:20:30.258Z,997
2017-08-27T04:21:40.617Z,996.98
2017-08-27T04:22:50.978Z,996.97
2017-08-27T04:24:01.325Z,996.96
2017-08-27T04:25:11.902Z,996.95
2017-08-27T04:26:21.975Z,996.96
2017-08-27T04:27:32.001Z,996.99
2017-08-27T04:28:42.030Z,996.98
2017-08-27T04:29:52.044Z,996.95
2017-08-27T04:31:02.414Z,996.96
2017-08-27T04:32:12.816Z,996.92
2017-08-27T04:33:23.163Z,996.93
2017-08-27T04:34:33.497Z,996.97
2017-08-27T04:35:43.843Z,997
2017-08-27T04:36:54.180Z,996.98
2017-08-27T04:38:04.590Z,996.98
2017-08-27T04:39:14.931Z,996.99
2017-08-27T04:40:25.284Z,996.97
2017-08-27T04:41:35.636Z,996.98
2017-08-27T04:42:45.673Z,996.95
2017-08-27T04:43:56.050Z,996.94
2017-08-27T04:45:05.451Z,996.95
2017-08-27T04:46:15.798Z,996.97
2017-08-27T04:47:26.149Z,996.95
2017-08-27T04:48:36.493Z,996.95
2017-08-27T04:49:46.568Z,996.97
2017-08-27T04:50:56.920Z,997.02
2017-08-27T04:52:06.967Z,997.02
2017-08-27T04:53:17.301Z,997.06
2017-08-27T04:54:27.687Z,997.08
2017-08-27T04:55:37.771Z,997.1
2017-08-27T04:56:48.122Z,997.1
2017-08-27T04:57:58.465Z,997.1
2017-08-27T04:59:08.812Z,997.12
2017-08-27T05:00:19.154Z,997.09
2017-08-27T05:01:29.550Z,997.09
2017-08-27T05:02:39.889Z,997.14
2017-08-27T05:03:50.225Z,997.13
2017-08-27T05:05:00.265Z,997.17
2017-08-27T05:06:10.628Z,997.12
2017-08-27T05:07:21.018Z,997.28
2017-08-27T05:08:31.366Z,997.3
2017-08-27T05:09:41.378Z,997.34
2017-08-27T05:10:51.727Z,997.19
2017-08-27T05:12:01.778Z,997.16
2017-08-27T05:13:12.168Z,997.22
2017-08-27T05:14:22.528Z,997.19
2017-08-27T05:15:32.543Z,997.17
2017-08-27T05:16:42.260Z,997.19
2017-08-27T05:17:52.599Z,997.27
2017-08-27T05:19:02.993Z,997.16
2017-08-27T05:20:13.327Z,997.22
2017-08-27T05:21:23.352Z,997.16
2017-08-27T05:22:33.373Z,997.16
2017-08-27T05:23:43.715Z,997.13
2017-08-27T05:24:53.794Z,997.12
2017-08-27T05:26:04.142Z,997.13
2017-08-27T05:27:14.479Z,997.1
2017-08-27T05:28:24.822Z,997.12
2017-08-27T05:29:34.855Z,997.13
2017-08-27T05:30:45.245Z,997.12
2017-08-27T05:31:55.589Z,997.13
2017-08-27T05:33:05.610Z,997.13
2017-08-27T05:34:15.981Z,997.18
2017-08-27T05:35:26.332Z,997.14
2017-08-27T05:36:36.731Z,997.15
2017-08-27T05:37:46.767Z,997.19
2017-08-27T05:38:57.113Z,997.23
2017-08-27T05:40:07.487Z,997.27
2017-08-27T05:41:17.849Z,997.28
2017-08-27T05:42:27.923Z,997.28
2017-08-27T05:43:37.655Z,997.32
2017-08-27T05:44:47.685Z,997.36
2017-08-27T05:45:58.040Z,997.42
2017-08-27T05:47:08.080Z,997.4
2017-08-27T05:48:18.183Z,997.42
2017-08-27T05:49:28.522Z,997.4
2017-08-27T05:50:38.861Z,997.35
2017-08-27T05:51:49.222Z,997.38
2017-08-27T05:52:59.250Z,997.4
2017-08-27T05:54:09.357Z,997.4
2017-08-27T05:55:19.393Z,997.45
2017-08-27T05:56:29.427Z,997.4
2017-08-27T05:57:43.218Z,997.39
2017-08-27T05:58:53.593Z,997.43
2017-08-27T06:00:03.677Z,997.42
2017-08-27T06:01:13.724Z,997.38
2017-08-27T06:02:24.078Z,997.39
2017-08-27T06:03:34.425Z,997.42
2017-08-27T06:04:44.763Z,997.45
2017-08-27T06:05:55.160Z,997.43
2017-08-27T06:07:05.530Z,997.43
2017-08-27T06:08:15.537Z,997.45
2017-08-27T06:09:25.556Z,997.34
2017-08-27T06:10:38.950Z,997.44
2017-08-27T06:11:49.342Z,997.44
2017-08-27T06:12:59.691Z,997.4
2017-08-27T06:14:10.037Z,997.48
2017-08-27T06:15:19.758Z,997.48
2017-08-27T06:16:29.784Z,997.47
2017-08-27T06:17:40.190Z,997.5
2017-08-27T06:18:50.221Z,997.49
2017-08-27T06:20:00.408Z,997.5
2017-08-27T06:21:10.782Z,997.53
2017-08-27T06:22:21.136Z,997.53
2017-08-27T06:23:31.536Z,997.52
2017-08-27T06:24:41.557Z,997.51
2017-08-27T06:25:51.904Z,997.51
2017-08-27T06:27:02.253Z,997.52
2017-08-27T06:28:15.856Z,997.55
2017-08-27T06:29:26.266Z,997.51
2017-08-27T06:30:36.616Z,997.46
2017-08-27T06:31:46.643Z,997.49
2017-08-27T06:32:56.993Z,997.46
2017-08-27T06:34:07.338Z,997.46
2017-08-27T06:35:17.418Z,997.44
2017-08-27T06:36:27.470Z,997.4
2017-08-27T06:37:37.526Z,997.39
2017-08-27T06:38:47.568Z,997.42
2017-08-27T06:39:57.926Z,997.39
2017-08-27T06:41:08.317Z,997.4
2017-08-27T06:42:18.682Z,997.45
2017-08-27T06:43:29.056Z,997.49
2017-08-27T06:44:39.393Z,997.48
2017-08-27T06:45:49.734Z,997.55
2017-08-27T06:47:00.142Z,997.52
2017-08-27T06:48:10.183Z,997.52
2017-08-27T06:49:20.202Z,997.54
2017-08-27T06:50:30.554Z,997.56
2017-08-27T06:51:40.895Z,997.62
2017-08-27T06:52:51.295Z,997.64
2017-08-27T06:54:01.331Z,997.63
2017-08-27T06:55:11.398Z,997.58
2017-08-27T06:56:21.757Z,997.55
2017-08-27T06:57:32.121Z,997.55
2017-08-27T06:58:42.202Z,997.56
2017-08-27T06:59:52.550Z,997.59
2017-08-27T07:01:02.922Z,997.61
2017-08-27T07:02:13.270Z,997.61
2017-08-27T07:03:23.303Z,997.59
2017-08-27T07:04:33.712Z,997.64
2017-08-27T07:05:44.053Z,997.66
2017-08-27T07:06:54.414Z,997.65
2017-08-27T07:08:04.773Z,997.67
2017-08-27T07:09:15.123Z,997.69
2017-08-27T07:10:25.207Z,997.71
2017-08-27T07:11:35.573Z,997.75
2017-08-27T07:12:45.626Z,997.7
2017-08-27T07:13:55.988Z,997.68
2017-08-27T07:15:06.032Z,997.7
2017-08-27T07:16:16.445Z,997.61
2017-08-27T07:17:27.032Z,997.65
2017-08-27T07:18:37.415Z,997.68
2017-08-27T07:19:47.468Z,997.67
2017-08-27T07:20:57.822Z,997.71
2017-08-27T07:22:07.589Z,997.69
2017-08-27T07:23:17.938Z,997.66
2017-08-27T07:24:27.655Z,997.71
2017-08-27T07:25:38.021Z,997.67
2017-08-27T07:26:48.379Z,997.69
2017-08-27T07:27:58.776Z,997.7
2017-08-27T07:29:08.821Z,997.7
2017-08-27T07:30:19.167Z,997.66
2017-08-27T07:31:29.200Z,997.74
2017-08-27T07:32:39.229Z,997.74
2017-08-27T07:33:49.312Z,997.74
2017-08-27T07:34:59.658Z,997.73
2017-08-27T07:36:09.680Z,997.71
2017-08-27T07:37:20.048Z,997.69
2017-08-27T07:38:30.110Z,997.7
2017-08-27T07:39:40.200Z,997.65
2017-08-27T07:40:50.558Z,997.72
2017-08-27T07:42:00.919Z,997.7
2017-08-27T07:43:11.289Z,997.73
2017-08-27T07:44:21.655Z,997.71
2017-08-27T07:45:32.085Z,997.65
2017-08-27T07:46:42.127Z,997.67
2017-08-27T07:47:52.487Z,997.69
2017-08-27T07:49:02.528Z,997.67
2017-08-27T07:50:12.884Z,997.68
2017-08-27T07:51:23.301Z,997.69
2017-08-27T07:52:33.645Z,997.7
2017-08-27T07:53:44.015Z,997.71
2017-08-27T07:54:54.060Z,997.76
2017-08-27T07:56:04.407Z,997.76
2017-08-27T07:57:14.807Z,997.78
2017-08-27T07:58:25.151Z,997.75
2017-08-27T07:59:35.485Z,997.74
2017-08-27T08:00:45.528Z,997.76
2017-08-27T08:01:55.907Z,997.74
2017-08-27T08:03:06.298Z,997.77
2017-08-27T08:04:16.653Z,997.74
2017-08-27T08:05:27.005Z,997.77
2017-08-27T08:06:37.047Z,997.78
2017-08-27T08:07:47.407Z,997.78
2017-08-27T08:08:57.815Z,997.75
2017-08-27T08:10:08.158Z,997.78
2017-08-27T08:11:18.206Z,997.77
2017-08-27T08:12:28.245Z,997.72
2017-08-27T08:13:38.587Z,997.7
2017-08-27T08:14:48.994Z,997.68
2017-08-27T08:15:59.349Z,997.72
2017-08-27T08:17:09.411Z,997.74
2017-08-27T08:18:19.779Z,997.82
2017-08-27T08:19:30.165Z,997.83
2017-08-27T08:20:40.571Z,997.86
2017-08-27T08:21:50.966Z,997.84
2017-08-27T08:23:01.317Z,997.88
2017-08-27T08:24:11.304Z,997.9
2017-08-27T08:25:21.019Z,997.9
2017-08-27T08:26:31.107Z,997.93
2017-08-27T08:27:43.469Z,997.97
2017-08-27T08:28:53.825Z,997.92
2017-08-27T08:30:04.177Z,997.92
2017-08-27T08:31:14.534Z,997.97
2017-08-27T08:32:24.973Z,997.92
2017-08-27T08:33:35.322Z,997.9
2017-08-27T08:34:45.677Z,997.89
2017-08-27T08:35:55.721Z,997.92
2017-08-27T08:37:05.453Z,997.97
2017-08-27T08:38:15.844Z,997.98
2017-08-27T08:39:26.203Z,997.95
2017-08-27T08:40:36.245Z,997.95
2017-08-27T08:41:48.409Z,997.96
2017-08-27T08:42:58.447Z,997.97
2017-08-27T08:44:08.858Z,997.98
2017-08-27T08:45:19.551Z,997.96
2017-08-27T08:46:31.597Z,998.02
2017-08-27T08:47:41.956Z,998.02
2017-08-27T08:48:52.001Z,998.01
2017-08-27T08:50:02.092Z,997.98
2017-08-27T08:51:12.439Z,997.99
2017-08-27T08:52:22.800Z,998.01
2017-08-27T08:53:33.160Z,997.97
2017-08-27T08:54:43.196Z,997.92
2017-08-27T08:55:54.386Z,997.95
2017-08-27T08:57:04.743Z,997.87
2017-08-27T08:58:15.097Z,997.98
2017-08-27T08:59:27.826Z,997.95
2017-08-27T09:00:37.862Z,997.93
2017-08-27T09:01:47.980Z,997.9
2017-08-27T09:02:58.028Z,997.94
2017-08-27T09:04:08.087Z,997.93
2017-08-27T09:05:22.016Z,997.92
2017-08-27T09:06:33.813Z,997.93
2017-08-27T09:07:44.959Z,997.91
2017-08-27T09:08:55.321Z,997.9
2017-08-27T09:10:05.661Z,997.89
2017-08-27T09:11:16.012Z,997.88
2017-08-27T09:12:26.379Z,997.86
2017-08-27T09:13:36.798Z,997.9
2017-08-27T09:14:47.176Z,997.89
2017-08-27T09:15:57.224Z,997.88
2017-08-27T09:17:07.563Z,997.89
2017-08-27T09:18:17.916Z,997.85
2017-08-27T09:19:28.327Z,997.89
2017-08-27T09:20:38.688Z,997.79
2017-08-27T09:21:48.771Z,997.79
2017-08-27T09:22:59.131Z,997.78
2017-08-27T09:24:09.197Z,997.78
2017-08-27T09:25:18.974Z,997.73
2017-08-27T09:26:32.234Z,997.77
2017-08-27T09:27:42.617Z,997.75
2017-08-27T09:28:52.652Z,997.67
2017-08-27T09:30:02.738Z,997.69
2017-08-27T09:31:12.838Z,997.7
2017-08-27T09:32:23.209Z,997.69
2017-08-27T09:33:33.570Z,997.7
2017-08-27T09:34:43.602Z,997.72
2017-08-27T09:35:53.648Z,997.72
2017-08-27T09:37:04.061Z,997.71
2017-08-27T09:38:14.405Z,997.74
2017-08-27T09:39:24.748Z,997.67
2017-08-27T09:40:35.118Z,997.65
2017-08-27T09:41:45.506Z,997.64
2017-08-27T09:42:55.966Z,997.63
2017-08-27T09:44:06.019Z,997.64
2017-08-27T09:45:16.439Z,997.62
2017-08-27T09:46:26.848Z,997.59
2017-08-27T09:47:37.258Z,997.58
2017-08-27T09:48:47.335Z,997.6
2017-08-27T09:49:57.735Z,997.59
2017-08-27T09:51:08.144Z,997.58
2017-08-27T09:52:20.145Z,997.51
2017-08-27T09:53:30.599Z,997.53
2017-08-27T09:54:41.007Z,997.51
2017-08-27T09:55:51.092Z,997.48
2017-08-27T09:57:01.499Z,997.49
2017-08-27T09:58:13.898Z,997.46
2017-08-27T09:59:24.358Z,997.46
2017-08-27T10:00:34.810Z,997.46
2017-08-27T10:01:45.227Z,997.41
2017-08-27T10:02:57.346Z,997.37
2017-08-27T10:04:08.236Z,997.4
2017-08-27T10:05:18.965Z,997.44
2017-08-27T10:06:29.332Z,997.41
2017-08-27T10:07:39.815Z,997.41
2017-08-27T10:08:50.256Z,997.37
2017-08-27T10:10:00.787Z,997.39
2017-08-27T10:11:11.207Z,997.37
2017-08-27T10:12:21.710Z,997.37
2017-08-27T10:13:32.189Z,997.37
2017-08-27T10:14:42.892Z,997.4
2017-08-27T10:15:53.276Z,997.36
2017-08-27T10:17:03.818Z,997.38
2017-08-27T10:18:14.319Z,997.36
2017-08-27T10:19:25.723Z,997.38
2017-08-27T10:20:36.390Z,997.35
2017-08-27T10:21:46.861Z,997.36
2017-08-27T10:22:57.274Z,997.37
2017-08-27T10:24:07.626Z,997.39
2017-08-27T10:25:18.077Z,997.37
2017-08-27T10:26:28.786Z,997.35
2017-08-27T10:27:40.365Z,997.38
2017-08-27T10:28:51.647Z,997.39
2017-08-27T10:30:02.075Z,997.41
2017-08-27T10:31:12.756Z,997.38
2017-08-27T10:32:23.193Z,997.32
2017-08-27T10:33:33.503Z,997.32
2017-08-27T10:34:43.938Z,997.28
2017-08-27T10:35:54.340Z,997.28
2017-08-27T10:37:04.418Z,997.27
2017-08-27T10:38:14.468Z,997.29
2017-08-27T10:39:24.857Z,997.26
2017-08-27T10:40:35.298Z,997.24
2017-08-27T10:41:45.945Z,997.24
2017-08-27T10:42:56.318Z,997.24
2017-08-27T10:44:06.722Z,997.23
2017-08-27T10:45:17.116Z,997.32
2017-08-27T10:46:27.562Z,997.24
2017-08-27T10:47:37.919Z,997.24
2017-08-27T10:48:48.304Z,997.24
2017-08-27T10:49:58.354Z,997.2
2017-08-27T10:51:08.721Z,997.22
2017-08-27T10:52:19.128Z,997.18
2017-08-27T10:53:29.192Z,997.18
2017-08-27T10:54:39.557Z,997.19
2017-08-27T10:55:49.912Z,997.17
2017-08-27T10:57:00.277Z,997.14
2017-08-27T10:58:11.204Z,997.14
2017-08-27T10:59:21.557Z,997.1
2017-08-27T11:00:31.946Z,997.14
2017-08-27T11:01:41.995Z,997.13
2017-08-27T11:02:52.353Z,997.12
2017-08-27T11:04:02.439Z,997.11
2017-08-27T11:05:12.827Z,997.14
2017-08-27T11:06:23.198Z,997.14
2017-08-27T11:07:33.577Z,997.16
2017-08-27T11:08:43.952Z,997.17
2017-08-27T11:09:54.050Z,997.17
2017-08-27T11:11:04.407Z,997.16
2017-08-27T11:12:14.476Z,997.17
2017-08-27T11:13:24.521Z,997.13
2017-08-27T11:14:39.316Z,997.14
2017-08-27T11:15:49.757Z,997.11
2017-08-27T11:17:00.136Z,997.15
2017-08-27T11:18:10.208Z,997.21
2017-08-27T11:19:19.917Z,997.14
2017-08-27T11:20:32.041Z,997.11
2017-08-27T11:21:42.132Z,997.11
2017-08-27T11:22:52.532Z,997.04
2017-08-27T11:24:02.891Z,996.99
2017-08-27T11:25:12.952Z,996.99
2017-08-27T11:26:23.324Z,997.01
2017-08-27T11:27:33.751Z,996.98
2017-08-27T11:28:44.117Z,996.95
2017-08-27T11:29:54.175Z,997
2017-08-27T11:31:04.554Z,996.99
2017-08-27T11:32:14.894Z,996.95
2017-08-27T11:33:25.012Z,996.94
2017-08-27T11:34:35.378Z,996.91
2017-08-27T11:35:45.731Z,996.93
2017-08-27T11:36:56.106Z,996.92
2017-08-27T11:38:06.155Z,996.88
2017-08-27T11:39:16.262Z,996.9
2017-08-27T11:40:26.636Z,996.89
2017-08-27T11:41:37.458Z,996.87
2017-08-27T11:42:47.848Z,996.86
2017-08-27T11:43:57.573Z,996.83
2017-08-27T11:45:08.004Z,996.81
2017-08-27T11:46:18.380Z,996.81
2017-08-27T11:47:29.519Z,996.81
2017-08-27T11:48:39.575Z,996.8
2017-08-27T11:49:49.962Z,996.78
2017-08-27T11:51:00.072Z,996.74
2017-08-27T11:52:09.810Z,996.75
2017-08-27T11:53:19.855Z,996.72
2017-08-27T11:54:30.253Z,996.7
2017-08-27T11:55:40.609Z,996.7
2017-08-27T11:56:51.012Z,996.68
2017-08-27T11:58:01.375Z,996.72
2017-08-27T11:59:11.742Z,996.68
2017-08-27T12:00:24.589Z,996.65
2017-08-27T12:01:34.960Z,996.67
2017-08-27T12:02:45.055Z,996.64
2017-08-27T12:03:55.111Z,996.63
2017-08-27T12:05:05.492Z,996.65
2017-08-27T12:06:15.836Z,996.64
2017-08-27T12:07:26.213Z,996.67
2017-08-27T12:08:36.323Z,996.7
2017-08-27T12:09:46.376Z,996.64
2017-08-27T12:10:56.432Z,996.51
2017-08-27T12:12:06.825Z,996.55
2017-08-27T12:13:16.888Z,996.54
2017-08-27T12:14:27.319Z,996.46
2017-08-27T12:15:37.702Z,996.42
2017-08-27T12:16:48.071Z,996.39
2017-08-27T12:17:58.447Z,996.37
2017-08-27T12:19:09.609Z,996.37
2017-08-27T12:20:20.035Z,996.38
2017-08-27T12:21:30.410Z,996.44
2017-08-27T12:22:40.787Z,996.48
2017-08-27T12:23:50.861Z,996.43
2017-08-27T12:25:01.231Z,996.35
2017-08-27T12:26:11.668Z,996.37
2017-08-27T12:27:22.053Z,996.4
2017-08-27T12:28:32.442Z,996.35
2017-08-27T12:29:42.830Z,996.32
2017-08-27T12:30:54.448Z,996.33
2017-08-27T12:32:04.885Z,996.28
2017-08-27T12:33:14.931Z,996.25
2017-08-27T12:34:25.301Z,996.25
2017-08-27T12:35:35.348Z,996.27
2017-08-27T12:36:45.705Z,996.25
2017-08-27T12:37:56.122Z,996.25
2017-08-27T12:39:06.489Z,996.22
2017-08-27T12:40:16.850Z,996.25
2017-08-27T12:41:27.211Z,996.25
2017-08-27T12:42:37.576Z,996.12
2017-08-27T12:43:47.987Z,996.13
2017-08-27T12:44:58.027Z,996.06
2017-08-27T12:46:08.402Z,996.05
2017-08-27T12:47:18.762Z,996.09
2017-08-27T12:48:28.826Z,996.04
2017-08-27T12:49:39.241Z,996
2017-08-27T12:50:49.618Z,996.02
2017-08-27T12:51:59.993Z,995.97
2017-08-27T12:53:10.064Z,995.96
2017-08-27T12:54:20.439Z,995.96
2017-08-27T12:55:30.865Z,995.95
2017-08-27T12:56:40.904Z,995.96
2017-08-27T12:57:50.970Z,995.93
2017-08-27T12:59:01.341Z,995.96
2017-08-27T13:00:11.730Z,995.89
2017-08-27T13:01:22.152Z,995.92
2017-08-27T13:02:32.230Z,995.97
2017-08-27T13:03:42.284Z,995.95
2017-08-27T13:04:52.315Z,996.01
2017-08-27T13:06:02.755Z,995.93
2017-08-27T13:07:13.146Z,995.93
2017-08-27T13:08:25.311Z,995.97
2017-08-27T13:09:35.671Z,995.93
2017-08-27T13:10:45.743Z,995.88
2017-08-27T13:11:55.860Z,995.97
2017-08-27T13:13:05.908Z,995.96
2017-08-27T13:14:16.277Z,995.94
2017-08-27T13:15:26.668Z,995.93
2017-08-27T13:16:37.065Z,995.92
2017-08-27T13:17:47.177Z,995.86
2017-08-27T13:18:57.569Z,995.86
2017-08-27T13:20:07.947Z,995.84
2017-08-27T13:21:18.314Z,995.82
2017-08-27T13:22:30.278Z,995.81
2017-08-27T13:23:40.333Z,995.78
2017-08-27T13:24:50.717Z,995.82
2017-08-27T13:26:02.696Z,995.79
2017-08-27T13:27:13.064Z,995.84
2017-08-27T13:28:22.783Z,995.81
2017-08-27T13:29:33.222Z,995.77
2017-08-27T13:30:43.605Z,995.72
2017-08-27T13:31:53.685Z,995.69
2017-08-27T13:33:04.058Z,995.65
2017-08-27T13:34:14.461Z,995.64
2017-08-27T13:35:24.862Z,995.64
2017-08-27T13:36:35.215Z,995.61
2017-08-27T13:37:45.258Z,995.61
2017-08-27T13:38:55.300Z,995.6
2017-08-27T13:40:05.736Z,995.58
2017-08-27T13:41:16.120Z,995.59
2017-08-27T13:42:26.515Z,995.5
2017-08-27T13:43:36.920Z,995.54
2017-08-27T13:44:47.293Z,995.49
2017-08-27T13:45:57.724Z,995.54
2017-08-27T13:47:08.088Z,995.54
2017-08-27T13:48:18.452Z,995.48
2017-08-27T13:49:28.833Z,995.41
2017-08-27T13:50:38.564Z,995.44
2017-08-27T13:51:48.404Z,995.47
2017-08-27T13:52:58.780Z,995.42
2017-08-27T13:54:09.162Z,995.46
2017-08-27T13:55:19.535Z,995.42
2017-08-27T13:56:29.587Z,995.46
2017-08-27T13:57:40.754Z,995.44
2017-08-27T13:58:50.180Z,995.47
2017-08-27T13:59:59.902Z,995.5
2017-08-27T14:01:09.978Z,995.52
2017-08-27T14:02:20.363Z,995.51
2017-08-27T14:03:30.786Z,995.45
2017-08-27T14:04:40.853Z,995.41
2017-08-27T14:05:51.198Z,995.39
2017-08-27T14:07:01.564Z,995.33
2017-08-27T14:08:11.922Z,995.31
2017-08-27T14:09:22.352Z,995.27
2017-08-27T14:10:32.708Z,995.23
2017-08-27T14:11:43.069Z,995.2
2017-08-27T14:12:53.470Z,995.19
2017-08-27T14:14:03.853Z,995.14
2017-08-27T14:15:14.283Z,995.11
2017-08-27T14:16:24.636Z,995.12
2017-08-27T14:17:34.980Z,995.06
2017-08-27T14:18:45.358Z,995.06
2017-08-27T14:19:55.420Z,995.12
2017-08-27T14:21:05.848Z,995.05
2017-08-27T14:22:16.223Z,995.06
2017-08-27T14:23:26.589Z,995.03
2017-08-27T14:24:36.969Z,995.04
2017-08-27T14:25:47.324Z,995.05
2017-08-27T14:26:57.751Z,995.04
2017-08-27T14:28:08.122Z,995.14
2017-08-27T14:29:18.493Z,995.11
2017-08-27T14:30:28.539Z,995.15
2017-08-27T14:31:38.580Z,995.13
2017-08-27T14:32:48.999Z,995.16
2017-08-27T14:33:59.377Z,995.11
2017-08-27T14:35:09.761Z,995.14
2017-08-27T14:36:20.238Z,995.1
2017-08-27T14:37:30.619Z,995.09
2017-08-27T14:38:41.035Z,995.08
2017-08-27T14:39:51.431Z,995.11
2017-08-27T14:41:01.158Z,995.13
2017-08-27T14:42:11.536Z,995.07
2017-08-27T14:43:22.053Z,995.18
2017-08-27T14:44:32.464Z,995.16
2017-08-27T14:45:42.536Z,995.32
2017-08-27T14:46:52.910Z,995.28
2017-08-27T14:48:03.195Z,995.26
2017-08-27T14:49:13.573Z,995.32
2017-08-27T14:50:23.684Z,995.31
2017-08-27T14:51:34.048Z,995.32
2017-08-27T14:52:44.414Z,995.33
2017-08-27T14:53:55.191Z,995.42
2017-08-27T14:55:05.571Z,995.43
2017-08-27T14:56:15.988Z,995.45
2017-08-27T14:57:26.350Z,995.47
2017-08-27T14:58:36.737Z,995.41
2017-08-27T14:59:47.106Z,995.43
2017-08-27T15:00:57.485Z,995.46
2017-08-27T15:02:07.927Z,995.4
2017-08-27T15:03:18.292Z,995.41
2017-08-27T15:04:28.340Z,995.48
2017-08-27T15:05:41.190Z,995.39
2017-08-27T15:06:51.561Z,995.47
2017-08-27T15:08:01.967Z,995.5
2017-08-27T15:09:12.029Z,995.55
2017-08-27T15:10:22.094Z,995.85
2017-08-27T15:11:32.443Z,996.2
2017-08-27T15:12:42.827Z,996.37
2017-08-27T15:13:53.248Z,996.32